Time;durP1;ratioP1;P1;durP2;ratioP2;P2;SDS_P1;SDS_P2;PMS_P1;PMS_P2;Temp;Humidity;BMP_temperature;BMP_pressure;BME280_temperature;BME280_humidity;BME280_pressure;Samples;Min_cycle;Max_cycle;Signal;HPM_P1;HPM_P2
2024/01/21 00:02:21;;;;;;;14.50;7.73;;;0.90;99.90;;;;;;5025647;28;20408;-66
2024/01/21 00:04:47;;;;;;;16.23;8.57;;;1.00;99.90;;;;;;5028458;28;20598;-67
2024/01/21 00:07:13;;;;;;;19.10;7.70;;;1.00;99.90;;;;;;5025974;28;20500;-67
2024/01/21 00:09:38;;;;;;;18.33;7.90;;;1.00;99.90;;;;;;5030532;28;20037;-67
2024/01/21 00:12:04;;;;;;;12.43;7.97;;;1.00;99.90;;;;;;5029329;28;20568;-67
2024/01/21 00:14:30;;;;;;;10.00;6.93;;;1.00;99.90;;;;;;5024853;28;20040;-68
2024/01/21 00:16:56;;;;;;;16.33;7.03;;;1.00;99.90;;;;;;5028879;28;20025;-66
2024/01/21 00:19:21;;;;;;;11.80;7.10;;;1.00;99.90;;;;;;5026809;28;20103;-67
2024/01/21 00:21:47;;;;;;;10.83;5.73;;;1.00;99.90;;;;;;5024631;28;20411;-65
2024/01/21 00:24:12;;;;;;;11.60;6.70;;;1.00;99.90;;;;;;5028216;28;20048;-66
2024/01/21 00:26:38;;;;;;;10.80;5.97;;;1.00;99.90;;;;;;5021984;28;20135;-65
2024/01/21 00:29:04;;;;;;;9.63;5.73;;;1.00;99.90;;;;;;5026315;28;20120;-68
2024/01/21 00:31:30;;;;;;;9.18;5.68;;;1.00;99.90;;;;;;5027574;28;20049;-65
2024/01/21 00:33:55;;;;;;;7.10;5.10;;;1.00;99.90;;;;;;5027945;28;20038;-65
2024/01/21 00:36:21;;;;;;;7.87;5.23;;;1.00;99.90;;;;;;5028577;28;20618;-65
2024/01/21 00:38:47;;;;;;;12.57;5.83;;;1.10;99.90;;;;;;5028584;28;20051;-65
2024/01/21 00:41:13;;;;;;;5.57;4.83;;;1.00;99.90;;;;;;5027840;28;20280;-66
2024/01/21 00:43:39;;;;;;;8.23;5.15;;;1.00;99.90;;;;;;5026611;28;20049;-65
2024/01/21 00:46:05;;;;;;;6.50;4.90;;;1.10;99.90;;;;;;5028275;28;20044;-66
2024/01/21 00:48:31;;;;;;;9.45;5.03;;;1.10;99.60;;;;;;5028357;28;20045;-66
2024/01/21 00:50:57;;;;;;;7.13;4.93;;;1.20;99.60;;;;;;5026434;28;20078;-66
2024/01/21 00:53:23;;;;;;;9.13;4.80;;;1.20;98.70;;;;;;5029246;28;20044;-65
2024/01/21 00:55:48;;;;;;;10.07;4.93;;;1.20;98.80;;;;;;5029193;28;20265;-67
2024/01/21 00:58:14;;;;;;;6.57;4.33;;;1.30;98.50;;;;;;5032548;28;20520;-66
2024/01/21 01:00:39;;;;;;;6.20;3.60;;;1.30;98.30;;;;;;5030963;28;20098;-66
2024/01/21 01:03:05;;;;;;;6.13;3.53;;;1.40;97.90;;;;;;5030754;28;20036;-66
2024/01/21 01:05:31;;;;;;;6.13;4.33;;;1.30;98.00;;;;;;5031444;28;20033;-66
2024/01/21 01:07:56;;;;;;;5.10;3.87;;;1.40;97.80;;;;;;5031699;28;20040;-67
2024/01/21 01:10:22;;;;;;;6.33;4.30;;;1.30;98.00;;;;;;5032465;28;20476;-66
2024/01/21 01:12:47;;;;;;;7.60;4.47;;;1.30;97.90;;;;;;5040676;28;20308;-66
2024/01/21 01:15:13;;;;;;;5.83;3.83;;;1.30;98.10;;;;;;5033252;28;20048;-66
2024/01/21 01:17:39;;;;;;;4.05;3.30;;;1.30;97.80;;;;;;5031879;28;20056;-66
2024/01/21 01:20:05;;;;;;;4.27;3.23;;;1.30;98.30;;;;;;5033240;28;20457;-65
2024/01/21 01:22:31;;;;;;;6.15;3.33;;;1.30;98.20;;;;;;5037266;28;20056;-65
2024/01/21 01:24:56;;;;;;;4.30;3.20;;;1.30;98.00;;;;;;5036895;28;20495;-65
2024/01/21 01:27:24;;;;;;;4.87;3.37;;;1.30;98.20;;;;;;5028093;28;20084;-66
2024/01/21 01:29:50;;;;;;;6.28;3.25;;;1.30;98.20;;;;;;5036729;28;20045;-66
2024/01/21 01:32:16;;;;;;;10.15;3.10;;;1.30;97.70;;;;;;5031453;28;20037;-66
2024/01/21 01:34:42;;;;;;;4.47;2.80;;;1.30;98.10;;;;;;5030932;28;20038;-65
2024/01/21 01:37:09;;;;;;;5.30;3.13;;;1.30;98.10;;;;;;5036764;28;20550;-65
2024/01/21 01:39:35;;;;;;;6.13;3.25;;;1.30;98.00;;;;;;5031462;28;20029;-65
2024/01/21 01:42:01;;;;;;;3.40;2.35;;;1.30;97.70;;;;;;5030902;28;20033;-66
2024/01/21 01:44:26;;;;;;;3.35;2.50;;;1.40;97.60;;;;;;5031111;28;20098;-65
2024/01/21 01:46:52;;;;;;;3.93;2.67;;;1.40;97.10;;;;;;5029087;28;20038;-65
2024/01/21 01:49:19;;;;;;;5.15;2.80;;;1.40;96.90;;;;;;5033555;28;20041;-66
2024/01/21 01:51:45;;;;;;;3.78;2.53;;;1.50;97.40;;;;;;5032070;28;20052;-66
2024/01/21 01:54:11;;;;;;;4.03;2.38;;;1.50;96.80;;;;;;5030732;28;21105;-66
2024/01/21 01:56:38;;;;;;;5.30;2.10;;;1.50;97.00;;;;;;5030527;28;20045;-66
2024/01/21 01:59:09;;;;;;;5.93;2.65;;;1.50;97.30;;;;;;5029429;28;20041;-67
2024/01/21 02:01:39;;;;;;;3.63;2.45;;;1.50;97.30;;;;;;5031769;28;20057;-67
2024/01/21 02:04:07;;;;;;;1.70;1.58;;;1.60;96.60;;;;;;5030492;28;20065;-67
2024/01/21 02:06:33;;;;;;;3.53;2.40;;;1.60;97.10;;;;;;5031021;28;20051;-67
2024/01/21 02:08:59;;;;;;;3.05;2.42;;;1.60;97.20;;;;;;5029690;28;20045;-67
2024/01/21 02:11:24;;;;;;;5.05;2.58;;;1.60;97.00;;;;;;5031533;28;20100;-67
2024/01/21 02:13:50;;;;;;;3.27;2.40;;;1.60;96.80;;;;;;5013979;28;20042;-67
2024/01/21 02:16:16;;;;;;;4.30;2.03;;;1.60;96.30;;;;;;5031403;28;20544;-67
2024/01/21 02:18:45;;;;;;;2.88;2.00;;;1.70;96.10;;;;;;5032235;28;20048;-67
2024/01/21 02:21:11;;;;;;;3.63;2.88;;;1.70;96.30;;;;;;5028826;28;20104;-67
2024/01/21 02:23:36;;;;;;;4.53;2.17;;;1.70;96.60;;;;;;5029930;28;20467;-67
2024/01/21 02:26:02;;;;;;;2.70;1.47;;;1.60;96.60;;;;;;5041844;28;20048;-67
2024/01/21 02:28:28;;;;;;;5.70;1.70;;;1.60;96.60;;;;;;5046347;28;20099;-67
2024/01/21 02:30:53;;;;;;;2.87;1.83;;;1.70;96.40;;;;;;5031085;28;20046;-67
2024/01/21 02:33:19;;;;;;;2.33;1.57;;;1.70;96.20;;;;;;5030898;28;20047;-66
2024/01/21 02:35:44;;;;;;;2.50;1.60;;;1.70;95.90;;;;;;5031390;28;20033;-67
2024/01/21 02:38:10;;;;;;;2.70;1.50;;;1.70;95.90;;;;;;5027162;28;20050;-65
2024/01/21 02:40:37;;;;;;;2.03;1.73;;;1.70;95.50;;;;;;5030317;28;20029;-65
2024/01/21 02:43:07;;;;;;;3.30;1.55;;;1.80;94.80;;;;;;5048746;28;20415;-68
2024/01/21 02:45:33;;;;;;;1.85;1.60;;;1.80;94.30;;;;;;5045441;28;20099;-66
2024/01/21 02:47:58;;;;;;;2.30;1.80;;;1.90;93.50;;;;;;5029964;28;20120;-66
2024/01/21 02:50:24;;;;;;;4.93;1.43;;;1.90;93.40;;;;;;5027814;28;20521;-66
2024/01/21 02:52:50;;;;;;;2.27;1.20;;;2.00;92.90;;;;;;5026058;28;20053;-66
2024/01/21 02:55:15;;;;;;;2.43;1.40;;;2.00;92.70;;;;;;5030026;28;20033;-66
2024/01/21 02:57:41;;;;;;;2.70;1.60;;;2.00;92.30;;;;;;5029312;28;20037;-66
2024/01/21 03:00:07;;;;;;;3.37;1.57;;;2.00;92.20;;;;;;5030533;28;20041;-66
2024/01/21 03:02:33;;;;;;;1.30;1.20;;;2.10;91.90;;;;;;5028884;28;20037;-65
2024/01/21 03:04:59;;;;;;;10.00;2.15;;;2.10;92.40;;;;;;5030190;28;20041;-65
2024/01/21 03:07:24;;;;;;;2.70;1.77;;;2.00;92.70;;;;;;5029745;28;20567;-65
2024/01/21 03:09:50;;;;;;;2.87;1.40;;;2.00;92.70;;;;;;5026875;28;20052;-65
2024/01/21 03:12:16;;;;;;;1.53;1.30;;;1.90;92.30;;;;;;5029985;28;20040;-65
2024/01/21 03:14:41;;;;;;;2.83;1.70;;;1.90;92.70;;;;;;5029616;28;20038;-66
2024/01/21 03:17:07;;;;;;;1.57;1.30;;;1.90;92.40;;;;;;5030015;28;20060;-65
2024/01/21 03:19:33;;;;;;;2.25;1.23;;;1.90;92.60;;;;;;5028264;28;20045;-68
2024/01/21 03:21:59;;;;;;;1.55;1.38;;;1.90;92.00;;;;;;5030792;28;20332;-66
2024/01/21 03:24:25;;;;;;;2.20;1.20;;;1.90;92.30;;;;;;5027673;28;20041;-66
2024/01/21 03:26:50;;;;;;;3.17;1.47;;;1.80;91.90;;;;;;5028282;28;20037;-65
2024/01/21 03:29:16;;;;;;;2.33;1.30;;;1.80;91.90;;;;;;5029530;28;20050;-66
2024/01/21 03:31:42;;;;;;;1.80;1.55;;;1.90;90.90;;;;;;5028982;28;20456;-67
2024/01/21 03:34:07;;;;;;;1.47;1.17;;;1.90;90.90;;;;;;5037382;28;20045;-67
2024/01/21 03:36:33;;;;;;;2.33;1.17;;;1.90;90.60;;;;;;5029946;28;20339;-67
2024/01/21 03:38:59;;;;;;;1.77;1.10;;;2.00;90.40;;;;;;5025906;28;20045;-66
2024/01/21 03:41:24;;;;;;;1.70;1.20;;;2.00;89.90;;;;;;5026556;28;20117;-67
2024/01/21 03:43:50;;;;;;;1.83;1.27;;;2.10;89.00;;;;;;5029608;28;20041;-66
2024/01/21 03:46:16;;;;;;;3.13;1.40;;;2.10;88.10;;;;;;5027827;28;20045;-67
2024/01/21 03:48:42;;;;;;;5.22;1.55;;;2.10;88.40;;;;;;5028890;28;20095;-66
2024/01/21 03:51:10;;;;;;;1.30;0.60;;;2.10;87.40;;;;;;5025075;28;20053;-66
2024/01/21 03:53:37;;;;;;;1.15;0.75;;;2.20;86.70;;;;;;5030319;28;20049;-66
2024/01/21 03:56:03;;;;;;;2.38;1.25;;;2.20;86.20;;;;;;5027792;28;20112;-66
2024/01/21 03:58:29;;;;;;;1.25;0.70;;;2.10;85.90;;;;;;5025257;28;20487;-67
2024/01/21 04:00:54;;;;;;;1.17;0.90;;;2.20;84.80;;;;;;5040107;28;20065;-67
2024/01/21 04:03:20;;;;;;;1.20;0.70;;;2.20;83.70;;;;;;5029549;28;20049;-66
2024/01/21 04:05:46;;;;;;;1.20;1.00;;;2.20;84.30;;;;;;5029536;28;20500;-67
2024/01/21 04:08:11;;;;;;;1.73;1.10;;;2.30;85.10;;;;;;5029421;28;20088;-67
2024/01/21 04:10:37;;;;;;;2.57;1.23;;;2.30;83.20;;;;;;5026392;28;20073;-67
2024/01/21 04:13:03;;;;;;;2.93;0.67;;;2.30;83.40;;;;;;5027103;28;20046;-67
2024/01/21 04:15:28;;;;;;;2.63;0.80;;;2.30;83.50;;;;;;5027507;28;20098;-66
2024/01/21 04:17:54;;;;;;;1.87;0.80;;;2.40;82.40;;;;;;5029055;28;20082;-67
2024/01/21 04:20:19;;;;;;;1.13;0.80;;;2.40;82.40;;;;;;5029195;28;20029;-67
2024/01/21 04:22:45;;;;;;;0.97;0.87;;;2.40;82.00;;;;;;5028931;28;20112;-66
2024/01/21 04:25:10;;;;;;;2.17;0.60;;;2.50;80.50;;;;;;5027457;28;20037;-66
2024/01/21 04:27:36;;;;;;;2.27;0.83;;;2.60;80.40;;;;;;5030692;28;20091;-67
2024/01/21 04:30:02;;;;;;;2.57;1.03;;;2.60;80.60;;;;;;5030436;28;20065;-67
2024/01/21 04:32:27;;;;;;;3.53;1.13;;;2.60;81.40;;;;;;5029047;28;20076;-67
2024/01/21 04:34:53;;;;;;;0.90;0.60;;;2.70;79.50;;;;;;5025714;28;20288;-66
2024/01/21 04:37:19;;;;;;;1.30;0.80;;;2.70;78.50;;;;;;5027174;28;20512;-67
2024/01/21 04:39:44;;;;;;;2.03;0.90;;;2.80;78.70;;;;;;5027572;28;20038;-66
2024/01/21 04:42:10;;;;;;;1.23;0.80;;;2.80;79.10;;;;;;5025168;28;20029;-67
2024/01/21 04:44:35;;;;;;;1.77;0.90;;;2.80;79.20;;;;;;5028400;28;20033;-67
2024/01/21 04:47:01;;;;;;;1.67;0.93;;;2.80;80.20;;;;;;5026713;28;20040;-66
2024/01/21 04:49:27;;;;;;;2.42;1.00;;;2.70;80.80;;;;;;5024325;28;20528;-67
2024/01/21 04:51:53;;;;;;;4.10;0.77;;;2.70;81.30;;;;;;5024959;28;20049;-66
2024/01/21 04:54:18;;;;;;;2.28;1.42;;;2.60;80.40;;;;;;5032618;28;20044;-67
2024/01/21 04:56:45;;;;;;;2.87;1.50;;;2.60;81.20;;;;;;5033605;28;20037;-67
2024/01/21 04:59:11;;;;;;;3.88;1.05;;;2.60;80.30;;;;;;5027699;28;20419;-66
2024/01/21 05:01:38;;;;;;;2.57;1.23;;;2.60;81.00;;;;;;5028631;28;20120;-67
2024/01/21 05:04:04;;;;;;;1.33;1.00;;;2.60;79.20;;;;;;5015954;28;20088;-67
2024/01/21 05:06:29;;;;;;;3.63;1.50;;;2.60;79.50;;;;;;5028106;28;20049;-67
2024/01/21 05:08:55;;;;;;;1.40;1.30;;;2.60;79.20;;;;;;5035362;28;20108;-66
2024/01/21 05:11:21;;;;;;;3.03;0.97;;;2.60;78.50;;;;;;5028503;28;20041;-67
2024/01/21 05:13:46;;;;;;;1.47;0.73;;;2.60;78.60;;;;;;5028400;28;20458;-67
2024/01/21 05:16:12;;;;;;;4.23;1.30;;;2.60;78.80;;;;;;5027493;28;20100;-67
2024/01/21 05:18:38;;;;;;;2.03;0.97;;;2.60;80.00;;;;;;5029334;28;20041;-67
2024/01/21 05:21:04;;;;;;;2.13;1.55;;;2.50;80.10;;;;;;5026682;28;20042;-67
2024/01/21 05:23:30;;;;;;;2.10;0.93;;;2.50;79.30;;;;;;5028956;28;20405;-66
2024/01/21 05:25:55;;;;;;;2.97;1.80;;;2.50;79.40;;;;;;5040243;28;20451;-67
2024/01/21 05:28:22;;;;;;;2.80;1.90;;;2.50;79.40;;;;;;5028004;28;20049;-67
2024/01/21 05:30:47;;;;;;;2.05;1.15;;;2.50;79.70;;;;;;5027121;28;20037;-65
2024/01/21 05:33:13;;;;;;;1.63;1.50;;;2.50;79.60;;;;;;5026455;28;20053;-64
2024/01/21 05:35:38;;;;;;;2.57;1.23;;;2.50;79.70;;;;;;5026956;28;20048;-65
2024/01/21 05:38:05;;;;;;;1.73;0.93;;;2.50;80.00;;;;;;5028211;28;20098;-65
2024/01/21 05:40:31;;;;;;;2.20;1.85;;;2.50;80.90;;;;;;5025464;28;20044;-65
2024/01/21 05:42:56;;;;;;;1.70;1.30;;;2.50;79.30;;;;;;5027046;28;20037;-65
2024/01/21 05:45:22;;;;;;;3.00;1.87;;;2.50;80.70;;;;;;5025914;28;20120;-65
2024/01/21 05:47:48;;;;;;;3.30;2.33;;;2.40;81.00;;;;;;5027873;28;20052;-65
2024/01/21 05:50:14;;;;;;;4.47;2.03;;;2.40;80.00;;;;;;5030973;28;20073;-66
2024/01/21 05:52:39;;;;;;;3.23;1.40;;;2.50;79.90;;;;;;5031708;28;20038;-65
2024/01/21 05:55:05;;;;;;;2.33;1.90;;;2.40;81.10;;;;;;5031243;28;20045;-65
2024/01/21 05:57:31;;;;;;;3.97;1.65;;;2.50;80.80;;;;;;5031547;28;20038;-66
2024/01/21 05:59:57;;;;;;;2.47;1.67;;;2.50;81.00;;;;;;5029974;28;20040;-66
2024/01/21 06:02:22;;;;;;;4.90;1.70;;;2.50;79.80;;;;;;5033566;28;20033;-66
2024/01/21 06:04:50;;;;;;;3.30;2.23;;;2.50;81.10;;;;;;5027093;28;20042;-66
2024/01/21 06:07:16;;;;;;;5.32;1.90;;;2.50;79.70;;;;;;5031032;28;20300;-65
2024/01/21 06:09:41;;;;;;;3.05;2.25;;;2.60;80.90;;;;;;5031801;28;20042;-66
2024/01/21 06:12:08;;;;;;;5.47;2.42;;;2.60;80.60;;;;;;5029683;28;20041;-66
2024/01/21 06:14:33;;;;;;;3.00;2.42;;;2.60;81.70;;;;;;5030567;28;20050;-66
2024/01/21 06:16:59;;;;;;;2.28;2.08;;;2.60;81.00;;;;;;5031370;28;20472;-66
2024/01/21 06:19:25;;;;;;;7.00;3.63;;;2.60;81.60;;;;;;5029733;28;20435;-65
2024/01/21 06:21:50;;;;;;;3.60;2.43;;;2.60;81.20;;;;;;5031521;28;20037;-66
2024/01/21 06:24:17;;;;;;;4.47;2.20;;;2.60;81.50;;;;;;5029852;28;20057;-65
2024/01/21 06:26:44;;;;;;;2.95;2.08;;;2.60;82.10;;;;;;5025206;28;20044;-65
2024/01/21 06:29:10;;;;;;;3.92;2.30;;;2.60;82.00;;;;;;5029744;28;20069;-65
2024/01/21 06:31:36;;;;;;;3.45;2.65;;;2.70;81.00;;;;;;5031238;28;20065;-65
2024/01/21 06:34:01;;;;;;;3.00;2.70;;;2.70;81.50;;;;;;5037844;28;20037;-65
2024/01/21 06:36:27;;;;;;;4.23;3.10;;;2.70;81.10;;;;;;5041910;28;20330;-68
2024/01/21 06:38:52;;;;;;;4.50;2.17;;;2.70;81.10;;;;;;5029307;28;20234;-65
2024/01/21 06:41:18;;;;;;;3.37;2.53;;;2.80;80.90;;;;;;5036468;28;20038;-65
2024/01/21 06:43:44;;;;;;;5.37;2.83;;;2.80;80.90;;;;;;5024275;28;20057;-66
2024/01/21 06:46:10;;;;;;;3.78;2.15;;;2.80;80.80;;;;;;5028723;28;20052;-66
2024/01/21 06:48:36;;;;;;;5.43;3.20;;;2.80;81.20;;;;;;5030246;28;20554;-66
2024/01/21 06:51:10;;;;;;;3.67;2.97;;;2.80;81.60;;;;;;5028315;28;20049;-66
2024/01/21 06:53:36;;;;;;;5.18;3.58;;;2.80;82.10;;;;;;5025371;28;20174;-67
2024/01/21 06:56:07;;;;;;;5.32;3.08;;;2.80;81.60;;;;;;5028818;28;20044;-66
2024/01/21 06:58:36;;;;;;;3.78;2.72;;;2.70;82.10;;;;;;5024062;28;20045;-66
2024/01/21 07:01:02;;;;;;;7.10;4.28;;;2.80;82.40;;;;;;5029674;28;20037;-66
2024/01/21 07:03:28;;;;;;;5.55;3.53;;;2.70;81.90;;;;;;5029119;28;20102;-66
2024/01/21 07:05:53;;;;;;;5.40;3.63;;;2.80;82.20;;;;;;5028544;28;20033;-65
2024/01/21 07:08:19;;;;;;;6.10;4.03;;;2.80;82.70;;;;;;5030501;28;20045;-66
2024/01/21 07:10:45;;;;;;;5.60;3.33;;;2.70;83.20;;;;;;5030377;28;20041;-65
2024/01/21 07:13:11;;;;;;;7.75;3.63;;;2.70;82.70;;;;;;5030319;28;21169;-65
2024/01/21 07:15:37;;;;;;;8.55;4.75;;;2.70;83.70;;;;;;5024876;28;20040;-65
2024/01/21 07:18:03;;;;;;;7.17;4.20;;;2.70;84.70;;;;;;5027404;28;20037;-65
2024/01/21 07:20:29;;;;;;;6.65;4.38;;;2.70;84.40;;;;;;5030422;28;20041;-65
2024/01/21 07:22:56;;;;;;;5.13;3.67;;;2.60;85.40;;;;;;5030317;28;20042;-65
2024/01/21 07:25:22;;;;;;;9.88;4.93;;;2.60;85.60;;;;;;5030071;28;20141;-67
2024/01/21 07:27:48;;;;;;;6.75;4.38;;;2.50;85.20;;;;;;5028789;28;20073;-67
2024/01/21 07:30:14;;;;;;;16.63;4.85;;;2.50;85.90;;;;;;5029338;28;20690;-67
2024/01/21 07:32:40;;;;;;;7.05;4.65;;;2.50;86.20;;;;;;5030497;28;20396;-67
2024/01/21 07:35:08;;;;;;;6.07;3.67;;;2.50;86.50;;;;;;5029241;28;20037;-66
2024/01/21 07:37:35;;;;;;;8.77;4.05;;;2.40;86.70;;;;;;5028625;28;20049;-67
2024/01/21 07:40:01;;;;;;;;;;;2.40;86.80;;;;;;5029516;28;20095;-67
2024/01/21 07:42:27;;;;;;;8.95;5.22;;;2.40;87.50;;;;;;5024581;28;19917;-65
2024/01/21 07:44:53;;;;;;;7.77;5.03;;;2.40;87.50;;;;;;5029050;28;20103;-65
2024/01/21 07:47:18;;;;;;;8.50;5.47;;;2.40;88.40;;;;;;5027038;28;20040;-65
2024/01/21 07:49:44;;;;;;;7.10;5.23;;;2.30;89.10;;;;;;5029469;28;20029;-64
2024/01/21 07:52:10;;;;;;;9.87;5.27;;;2.30;89.20;;;;;;5035004;28;20033;-65
2024/01/21 07:54:35;;;;;;;9.68;4.95;;;2.30;89.50;;;;;;5033982;28;20041;-65
2024/01/21 07:57:01;;;;;;;6.70;5.47;;;2.30;89.90;;;;;;5026780;28;20034;-64
2024/01/21 07:59:26;;;;;;;9.40;5.63;;;2.30;90.10;;;;;;5031824;28;20290;-65
2024/01/21 08:01:52;;;;;;;8.70;5.70;;;2.30;90.10;;;;;;5025760;28;20446;-64
2024/01/21 08:04:18;;;;;;;9.70;6.00;;;2.30;90.00;;;;;;5021257;28;20045;-65
2024/01/21 08:06:43;;;;;;;6.90;5.33;;;2.30;90.30;;;;;;5040868;28;20045;-65
2024/01/21 08:09:09;;;;;;;16.03;5.10;;;2.30;90.40;;;;;;5023863;28;20033;-65
2024/01/21 08:11:34;;;;;;;9.50;5.93;;;2.30;90.50;;;;;;5020544;28;20485;-65
2024/01/21 08:14:00;;;;;;;8.97;5.63;;;2.30;90.60;;;;;;5021817;28;20040;-65
2024/01/21 08:16:26;;;;;;;8.50;4.87;;;2.30;90.60;;;;;;5027983;28;20293;-65
2024/01/21 08:18:51;;;;;;;6.67;4.93;;;2.30;90.90;;;;;;5028265;28;20029;-65
2024/01/21 08:21:17;;;;;;;7.43;5.37;;;2.30;90.90;;;;;;5029056;28;20061;-65
2024/01/21 08:23:42;;;;;;;11.57;5.53;;;2.30;91.20;;;;;;5028147;28;20052;-65
2024/01/21 08:26:08;;;;;;;7.97;5.33;;;2.30;91.30;;;;;;5028623;28;20045;-64
2024/01/21 08:28:33;;;;;;;6.40;5.43;;;2.30;91.70;;;;;;5027794;28;20132;-65
2024/01/21 08:31:02;;;;;;;8.27;5.40;;;2.30;91.50;;;;;;5024903;28;20041;-65
2024/01/21 08:33:29;;;;;;;7.28;5.10;;;2.40;91.50;;;;;;5023475;28;20444;-65
2024/01/21 08:35:54;;;;;;;;;;;2.30;91.80;;;;;;5017302;28;20457;-65
2024/01/21 08:38:20;;;;;;;7.70;5.05;;;2.40;91.90;;;;;;5022298;28;19982;-65
2024/01/21 08:40:45;;;;;;;8.67;5.23;;;2.40;91.80;;;;;;5038484;28;20067;-65
2024/01/21 08:43:11;;;;;;;6.80;5.07;;;2.40;91.90;;;;;;5028957;28;20037;-65
2024/01/21 08:45:37;;;;;;;10.80;5.80;;;2.50;92.30;;;;;;5016116;28;20521;-65
2024/01/21 08:48:03;;;;;;;10.07;6.30;;;2.50;92.30;;;;;;5015499;28;20042;-65
2024/01/21 08:50:28;;;;;;;8.73;5.95;;;2.50;92.30;;;;;;5016233;28;20505;-65
2024/01/21 08:52:54;;;;;;;7.43;5.53;;;2.50;92.50;;;;;;5022243;28;20037;-65
2024/01/21 08:55:19;;;;;;;8.70;5.17;;;2.50;92.80;;;;;;5029405;28;20223;-66
2024/01/21 08:57:45;;;;;;;9.70;5.40;;;2.50;92.70;;;;;;5019037;28;20096;-65
2024/01/21 09:00:11;;;;;;;10.70;6.23;;;2.50;92.40;;;;;;5017076;28;20830;-65
2024/01/21 09:02:37;;;;;;;7.78;5.05;;;2.50;92.40;;;;;;5021777;28;20045;-66
2024/01/21 09:05:03;;;;;;;7.60;5.33;;;2.60;92.40;;;;;;5026350;28;20052;-65
2024/01/21 09:07:28;;;;;;;6.22;4.82;;;2.50;92.40;;;;;;5018168;28;20393;-64
2024/01/21 09:09:54;;;;;;;7.80;5.30;;;2.50;92.50;;;;;;5017968;28;20543;-65
2024/01/21 09:12:19;;;;;;;7.60;4.57;;;2.60;92.70;;;;;;5022906;28;20053;-66
2024/01/21 09:14:45;;;;;;;8.50;5.63;;;2.50;92.90;;;;;;5018047;28;20041;-66
2024/01/21 09:17:11;;;;;;;7.43;5.90;;;2.50;93.20;;;;;;5023235;28;20124;-66
2024/01/21 09:19:36;;;;;;;9.77;5.47;;;2.60;93.10;;;;;;5027731;28;20457;-65
2024/01/21 09:22:02;;;;;;;7.87;5.87;;;2.60;93.30;;;;;;5027321;28;20280;-65
2024/01/21 09:24:28;;;;;;;8.50;5.90;;;2.60;93.80;;;;;;5022208;28;20092;-65
2024/01/21 09:26:53;;;;;;;8.30;5.23;;;2.60;93.60;;;;;;5033112;28;20049;-65
2024/01/21 09:29:19;;;;;;;9.13;5.83;;;2.70;93.40;;;;;;5026137;28;20037;-66
2024/01/21 09:31:55;;;;;;;11.27;5.70;;;2.70;93.70;;;;;;5028217;28;20480;-66
2024/01/21 09:34:21;;;;;;;8.60;5.13;;;2.70;93.70;;;;;;5023992;28;20427;-66
2024/01/21 09:36:48;;;;;;;7.68;5.53;;;2.80;93.70;;;;;;5024126;28;20033;-65
2024/01/21 09:39:13;;;;;;;10.63;6.05;;;2.70;94.00;;;;;;5025593;28;20041;-67
2024/01/21 09:41:52;;;;;;;9.23;6.10;;;2.70;94.40;;;;;;5030230;28;20052;-66
2024/01/21 09:44:25;;;;;;;9.13;5.50;;;2.70;94.50;;;;;;5031537;28;20101;-67
2024/01/21 09:46:56;;;;;;;8.55;5.60;;;2.70;94.40;;;;;;5035068;28;20041;-66
2024/01/21 09:49:22;;;;;;;7.38;5.70;;;2.80;94.70;;;;;;5020576;28;20404;-66
2024/01/21 09:51:52;;;;;;;6.18;5.55;;;2.90;94.70;;;;;;5028054;28;20033;-68
2024/01/21 09:54:19;;;;;;;8.15;5.88;;;2.80;94.90;;;;;;5024229;28;20045;-68
2024/01/21 09:56:44;;;;;;;7.55;5.35;;;2.80;95.50;;;;;;5023093;28;20034;-67
2024/01/21 09:59:11;;;;;;;9.17;5.33;;;2.80;95.40;;;;;;5037172;28;20038;-67
2024/01/21 10:01:39;;;;;;;9.02;6.05;;;2.80;95.60;;;;;;5024522;28;20033;-67
2024/01/21 10:04:05;;;;;;;7.50;5.00;;;2.80;95.70;;;;;;5027310;28;20041;-68
2024/01/21 10:06:32;;;;;;;8.85;5.28;;;2.90;96.20;;;;;;5027729;28;20167;-67
2024/01/21 10:09:30;;;;;;;8.00;5.32;;;2.90;96.40;;;;;;5017939;28;20505;-67
2024/01/21 10:11:57;;;;;;;7.03;5.60;;;2.90;96.30;;;;;;5015823;28;20530;-67
2024/01/21 10:14:26;;;;;;;6.95;5.18;;;2.90;96.40;;;;;;5027426;28;20037;-67
2024/01/21 10:16:53;;;;;;;8.88;6.03;;;3.00;96.70;;;;;;5028787;28;20045;-67
2024/01/21 10:19:31;;;;;;;10.60;5.63;;;3.00;97.00;;;;;;5036568;28;20029;-67
2024/01/21 10:22:10;;;;;;;7.97;4.97;;;3.10;97.10;;;;;;5043007;28;20171;-67
2024/01/21 10:24:40;;;;;;;7.80;5.38;;;3.10;97.50;;;;;;5037624;28;20227;-68
2024/01/21 10:27:07;;;;;;;7.85;5.88;;;3.10;97.50;;;;;;5039417;28;20446;-67
2024/01/21 10:29:36;;;;;;;7.22;5.40;;;3.10;97.80;;;;;;5046335;28;20312;-67
2024/01/21 10:32:01;;;;;;;7.68;5.32;;;3.10;97.90;;;;;;5034504;28;20408;-67
2024/01/21 10:34:27;;;;;;;5.50;4.00;;;3.20;97.70;;;;;;5037591;28;20046;-67
2024/01/21 10:36:54;;;;;;;9.90;5.80;;;3.20;97.70;;;;;;5028792;28;20137;-67
2024/01/21 10:39:21;;;;;;;9.32;5.95;;;3.20;98.20;;;;;;5033955;28;20123;-67
2024/01/21 10:41:47;;;;;;;7.45;5.88;;;3.30;98.30;;;;;;5025548;28;20396;-67
2024/01/21 10:44:14;;;;;;;6.78;5.15;;;3.30;98.50;;;;;;5041142;28;21243;-67
2024/01/21 10:46:42;;;;;;;7.43;6.00;;;3.30;98.70;;;;;;5033030;28;20524;-66
2024/01/21 10:49:11;;;;;;;7.72;5.75;;;3.30;99.10;;;;;;5038724;28;20041;-66
2024/01/21 10:51:39;;;;;;;10.93;5.50;;;3.30;99.20;;;;;;5039888;28;20047;-66
2024/01/21 10:54:05;;;;;;;7.70;5.25;;;3.40;99.50;;;;;;5027800;28;20044;-67
2024/01/21 10:56:32;;;;;;;5.93;4.68;;;3.30;99.90;;;;;;5038058;28;20044;-67
2024/01/21 10:58:59;;;;;;;7.78;5.97;;;3.40;99.90;;;;;;5033744;28;20029;-66
2024/01/21 11:01:25;;;;;;;8.13;5.60;;;3.40;99.90;;;;;;5028839;28;20049;-66
2024/01/21 11:04:03;;;;;;;7.97;5.20;;;3.50;99.90;;;;;;5030382;28;20041;-66
2024/01/21 11:06:29;;;;;;;7.38;5.28;;;3.50;99.90;;;;;;5022763;28;20408;-66
2024/01/21 11:08:59;;;;;;;7.63;5.87;;;3.60;99.90;;;;;;5029236;28;20041;-66
2024/01/21 11:11:25;;;;;;;8.45;6.10;;;3.60;99.90;;;;;;5025580;28;20432;-66
2024/01/21 11:13:52;;;;;;;9.07;5.25;;;3.60;99.90;;;;;;5027118;28;20041;-66
2024/01/21 11:16:26;;;;;;;;;;;3.60;99.90;;;;;;5030845;28;20088;-66
2024/01/21 11:18:53;;;;;;;11.68;5.60;;;3.60;99.90;;;;;;5036732;28;20414;-66
2024/01/21 11:21:23;;;;;;;;;;;3.60;99.90;;;;;;5030650;28;20559;-67
2024/01/21 11:24:00;;;;;;;8.35;5.47;;;3.60;99.90;;;;;;5023512;28;19921;-67
2024/01/21 11:26:29;;;;;;;7.90;5.40;;;3.60;99.90;;;;;;5020825;28;20304;-66
2024/01/21 11:28:58;;;;;;;7.40;5.32;;;3.60;99.90;;;;;;5023954;28;20041;-66
2024/01/21 11:31:25;;;;;;;10.13;5.38;;;3.50;99.90;;;;;;5026390;28;20050;-66
2024/01/21 11:34:10;;;;;;;8.57;5.25;;;3.50;99.90;;;;;;5010640;28;20042;-67
2024/01/21 11:36:40;;;;;;;9.27;5.97;;;3.40;99.90;;;;;;5027304;28;20124;-66
2024/01/21 11:39:08;;;;;;;7.50;5.95;;;3.40;99.90;;;;;;5034503;28;20117;-66
2024/01/21 11:41:38;;;;;;;8.25;5.90;;;3.40;99.90;;;;;;5027748;28;20041;-66
2024/01/21 11:44:25;;;;;;;7.82;6.22;;;3.30;99.90;;;;;;5020696;28;20038;-66
2024/01/21 11:47:01;;;;;;;9.23;6.75;;;3.30;99.90;;;;;;5033497;28;20056;-66
2024/01/21 11:49:27;;;;;;;8.50;6.55;;;3.30;99.90;;;;;;5015009;28;20064;-67
2024/01/21 11:51:53;;;;;;;10.10;6.70;;;3.40;99.90;;;;;;5024624;28;20041;-66
2024/01/21 11:54:21;;;;;;;7.07;5.20;;;3.40;99.90;;;;;;5017700;28;20041;-66
2024/01/21 11:56:48;;;;;;;8.93;6.43;;;3.40;99.90;;;;;;5022038;28;20041;-66
2024/01/21 11:59:14;;;;;;;8.95;6.43;;;3.40;99.90;;;;;;5027311;28;20124;-66
2024/01/21 12:01:41;;;;;;;13.10;6.38;;;3.50;99.90;;;;;;5018736;28;20079;-66
2024/01/21 12:04:09;;;;;;;7.65;5.60;;;3.40;99.90;;;;;;5028577;28;20040;-66
2024/01/21 12:06:41;;;;;;;7.05;5.45;;;3.50;99.90;;;;;;5026928;28;20033;-66
2024/01/21 12:09:10;;;;;;;10.07;5.78;;;3.60;99.90;;;;;;5030587;28;20047;-66
2024/01/21 12:11:36;;;;;;;9.10;6.45;;;3.50;99.90;;;;;;5025458;28;20496;-68
2024/01/21 12:14:08;;;;;;;6.65;5.95;;;3.60;99.90;;;;;;5026594;28;20046;-68
2024/01/21 12:16:34;;;;;;;6.85;5.72;;;3.60;99.90;;;;;;5023192;28;20452;-70
2024/01/21 12:19:00;;;;;;;;;;;3.60;99.90;;;;;;5015410;28;20068;-70
2024/01/21 12:21:27;;;;;;;11.73;6.28;;;3.70;99.90;;;;;;5042574;28;19964;-70
2024/01/21 12:23:53;;;;;;;10.60;6.40;;;3.70;99.90;;;;;;5024568;28;20041;-70
2024/01/21 12:26:21;;;;;;;8.15;5.45;;;3.70;99.90;;;;;;5028899;28;20378;-70
2024/01/21 12:29:12;;;;;;;8.13;6.30;;;3.70;99.90;;;;;;5029360;28;20500;-70
2024/01/21 12:31:39;;;;;;;7.22;6.40;;;3.70;99.90;;;;;;5036044;28;20053;-70
2024/01/21 12:34:07;;;;;;;11.23;6.70;;;3.80;99.90;;;;;;5034759;28;20034;-68
2024/01/21 12:36:34;;;;;;;10.25;5.97;;;3.80;99.90;;;;;;5020490;28;20049;-67
2024/01/21 12:39:00;;;;;;;8.88;6.28;;;3.80;99.90;;;;;;5037874;28;20030;-68
2024/01/21 12:41:26;;;;;;;9.50;5.93;;;3.80;99.90;;;;;;5020760;28;20042;-68
2024/01/21 12:43:52;;;;;;;9.00;6.40;;;3.90;99.90;;;;;;5029293;28;20064;-68
2024/01/21 12:46:19;;;;;;;7.97;5.65;;;3.90;99.90;;;;;;5020897;28;20045;-69
2024/01/21 12:48:46;;;;;;;10.43;6.20;;;3.90;99.90;;;;;;5028524;28;20581;-68
2024/01/21 12:51:22;;;;;;;10.93;6.80;;;4.00;99.90;;;;;;5020567;28;20077;-69
2024/01/21 12:53:52;;;;;;;7.50;5.38;;;4.00;99.90;;;;;;5033240;28;20038;-68
2024/01/21 12:56:18;;;;;;;7.45;6.15;;;4.00;99.90;;;;;;5034496;28;20055;-68